Time;durP1;ratioP1;P1;durP2;ratioP2;P2;SDS_P1;SDS_P2;PMS_P1;PMS_P2;Temp;Humidity;BMP_temperature;BMP_pressure;BME280_temperature;BME280_humidity;BME280_pressure;Samples;Min_cycle;Max_cycle;Signal;HPM_P1;HPM_P2
2021/12/06 00:00:29;;;;;;;5.60;5.10;;;8.40;99.90;;;;;;5063496;28;20678;-83
2021/12/06 00:02:57;;;;;;;6.17;5.60;;;8.40;99.90;;;;;;5074221;28;20947;-84
2021/12/06 00:05:25;;;;;;;5.80;5.30;;;8.30;99.90;;;;;;5057344;28;20470;-80
2021/12/06 00:07:51;;;;;;;5.60;5.10;;;8.10;99.90;;;;;;5058254;28;20439;-82
2021/12/06 00:10:17;;;;;;;5.67;5.17;;;7.90;99.90;;;;;;5076157;28;20989;-82
2021/12/06 00:12:43;;;;;;;5.53;5.03;;;8.00;99.90;;;;;;5051272;28;20428;-81
2021/12/06 00:15:10;;;;;;;6.23;5.60;;;7.80;99.90;;;;;;5043318;28;20419;-82
2021/12/06 00:17:36;;;;;;;6.60;5.97;;;7.50;99.90;;;;;;5035605;28;20451;-85
2021/12/06 00:20:04;;;;;;;7.37;5.30;;;7.60;99.90;;;;;;5059235;28;20447;-84
2021/12/06 00:22:29;;;;;;;5.63;5.13;;;7.50;99.90;;;;;;5024188;28;20444;-84
2021/12/06 00:24:56;;;;;;;8.17;6.43;;;7.30;99.90;;;;;;5055804;28;20463;-85
2021/12/06 00:27:22;;;;;;;7.37;6.67;;;7.20;99.90;;;;;;5076770;28;20315;-82
2021/12/06 00:29:49;;;;;;;6.37;5.87;;;7.20;99.90;;;;;;5046354;28;20427;-85
2021/12/06 00:32:15;;;;;;;6.50;5.90;;;7.30;99.90;;;;;;5076160;28;20419;-85
2021/12/06 00:34:41;;;;;;;6.53;5.90;;;7.00;99.90;;;;;;5045492;28;20443;-84
2021/12/06 00:37:22;;;;;;;7.07;6.20;;;7.20;99.90;;;;;;5076701;28;20474;-81
2021/12/06 00:39:52;;;;;;;6.83;6.23;;;6.90;99.90;;;;;;5037545;28;20436;-84
2021/12/06 00:42:21;;;;;;;7.20;6.40;;;6.80;99.90;;;;;;5045950;28;20427;-81
2021/12/06 00:44:46;;;;;;;7.00;6.30;;;6.90;99.90;;;;;;5034799;28;20451;-85
2021/12/06 00:47:12;;;;;;;8.50;6.57;;;6.60;99.90;;;;;;5079455;28;20986;-84
2021/12/06 00:49:38;;;;;;;7.70;6.90;;;6.60;99.90;;;;;;5056642;28;20182;-84
2021/12/06 00:52:05;;;;;;;8.70;6.40;;;6.50;99.90;;;;;;5040825;28;20452;-83
2021/12/06 00:54:34;;;;;;;7.20;6.37;;;6.50;99.90;;;;;;5038506;28;20933;-83
2021/12/06 00:57:02;;;;;;;7.77;7.00;;;6.40;99.90;;;;;;5072915;28;21150;-81
2021/12/06 00:59:28;;;;;;;6.90;6.20;;;6.30;99.90;;;;;;5072931;28;20418;-82
2021/12/06 01:01:54;;;;;;;7.87;7.10;;;6.10;99.90;;;;;;5045937;28;20423;-83
2021/12/06 01:04:20;;;;;;;7.03;6.43;;;6.20;99.90;;;;;;5079217;28;20185;-85
2021/12/06 01:06:46;;;;;;;7.83;7.13;;;6.10;99.90;;;;;;5043539;28;20532;-85
2021/12/06 01:09:11;;;;;;;8.30;7.50;;;6.10;99.90;;;;;;5059589;28;20185;-81
2021/12/06 01:11:37;;;;;;;7.37;6.67;;;5.80;99.90;;;;;;5049440;28;20243;-85
2021/12/06 01:14:03;;;;;;;7.20;6.50;;;5.90;99.90;;;;;;5043056;28;20193;-84
2021/12/06 01:16:29;;;;;;;7.90;7.10;;;5.70;99.90;;;;;;5048666;28;20206;-83
2021/12/06 01:18:55;;;;;;;7.83;7.03;;;5.80;99.90;;;;;;5054841;28;20277;-83
2021/12/06 01:21:33;;;;;;;8.20;7.40;;;5.40;99.90;;;;;;5056480;28;20447;-84
2021/12/06 01:24:00;;;;;;;7.63;6.93;;;5.50;99.90;;;;;;5046702;28;20427;-84
2021/12/06 01:31:57;;;;;;;8.53;7.73;;;5.30;99.90;;;;;;5044106;28;20484;-84
2021/12/06 01:39:39;;;;;;;7.20;6.60;;;5.40;99.90;;;;;;5075913;28;20416;-82
2021/12/06 01:42:07;;;;;;;8.93;7.93;;;5.40;99.90;;;;;;5062202;28;20429;-83
2021/12/06 01:44:39;;;;;;;8.97;7.10;;;5.40;99.90;;;;;;5028426;28;20636;-84
2021/12/06 01:47:07;;;;;;;9.23;8.33;;;5.20;99.90;;;;;;5050342;28;20995;-85
2021/12/06 01:49:38;;;;;;;9.00;8.10;;;5.30;99.90;;;;;;5077892;28;20408;-81
2021/12/06 01:52:12;;;;;;;10.20;8.40;;;5.30;99.90;;;;;;5057490;28;20442;-85
2021/12/06 01:54:39;;;;;;;9.60;8.40;;;5.30;99.90;;;;;;5066196;28;20408;-82
2021/12/06 01:57:05;;;;;;;9.37;8.40;;;5.10;99.90;;;;;;5056161;28;20443;-83
2021/12/06 01:59:31;;;;;;;8.83;7.87;;;5.00;99.90;;;;;;5078244;28;21018;-83
2021/12/06 02:01:57;;;;;;;9.60;8.20;;;5.10;99.90;;;;;;5063825;28;20442;-81
2021/12/06 02:04:24;;;;;;;8.80;7.90;;;5.10;99.90;;;;;;5040788;28;20425;-83
2021/12/06 02:06:50;;;;;;;10.23;9.13;;;4.90;99.90;;;;;;5038772;28;20456;-82
2021/12/06 02:09:18;;;;;;;10.00;8.90;;;5.30;99.90;;;;;;5028612;28;20446;-85
2021/12/06 02:11:45;;;;;;;9.23;8.20;;;5.10;99.90;;;;;;5060140;28;20542;-83
2021/12/06 02:19:54;;;;;;;9.77;7.50;;;4.60;99.90;;;;;;5070193;28;20430;-81
2021/12/06 02:22:23;;;;;;;8.87;8.00;;;4.70;99.90;;;;;;5055226;28;20435;-83
2021/12/06 02:24:52;;;;;;;12.47;8.57;;;4.70;99.90;;;;;;5061335;28;20463;-84
2021/12/06 02:27:19;;;;;;;10.00;8.73;;;4.50;99.90;;;;;;5077768;28;20625;-83
2021/12/06 02:29:47;;;;;;;9.30;8.40;;;4.30;99.90;;;;;;5054037;28;20481;-85
2021/12/06 02:32:14;;;;;;;10.23;8.93;;;4.60;99.90;;;;;;5041729;28;20539;-85
2021/12/06 02:34:44;;;;;;;9.43;8.33;;;4.30;99.90;;;;;;5062177;28;20426;-82
2021/12/06 02:37:11;;;;;;;11.67;9.63;;;4.40;99.90;;;;;;5076641;28;20458;-83
2021/12/06 02:39:38;;;;;;;11.40;10.20;;;4.20;99.90;;;;;;5073169;28;20783;-84
2021/12/06 02:42:07;;;;;;;10.97;8.47;;;4.20;99.90;;;;;;5048822;28;20434;-82
2021/12/06 02:44:33;;;;;;;9.93;8.93;;;4.30;99.90;;;;;;5021685;28;20942;-84
2021/12/06 02:46:58;;;;;;;10.17;9.10;;;4.20;99.90;;;;;;5052196;28;20501;-82
2021/12/06 02:49:26;;;;;;;10.27;8.90;;;4.30;99.90;;;;;;5057110;28;20189;-86
2021/12/06 02:51:52;;;;;;;13.60;9.50;;;4.30;99.90;;;;;;5060236;28;20178;-86
2021/12/06 02:54:21;;;;;;;9.50;8.47;;;3.90;99.90;;;;;;5027433;28;20435;-84
2021/12/06 02:57:06;;;;;;;10.30;9.20;;;4.30;99.90;;;;;;5077785;28;20450;-86
2021/12/06 02:59:35;;;;;;;9.77;8.77;;;4.20;99.90;;;;;;5048613;28;20926;-86
2021/12/06 03:02:12;;;;;;;9.83;8.83;;;4.10;99.90;;;;;;5059916;28;20940;-86
2021/12/06 03:04:39;;;;;;;10.10;8.00;;;4.10;99.90;;;;;;5051346;28;20426;-84
2021/12/06 03:07:06;;;;;;;10.33;9.30;;;4.30;99.90;;;;;;5069182;28;20447;-83
2021/12/06 03:09:36;;;;;;;9.40;8.40;;;4.30;99.90;;;;;;5056340;28;20515;-84
2021/12/06 03:12:13;;;;;;;9.83;8.93;;;3.90;99.90;;;;;;5063299;28;20432;-83
2021/12/06 03:14:49;;;;;;;10.13;8.87;;;4.00;99.90;;;;;;5032151;28;20793;-85
2021/12/06 03:17:17;;;;;;;9.63;8.67;;;4.00;99.90;;;;;;5053889;28;20474;-86
2021/12/06 03:19:44;;;;;;;10.60;9.50;;;3.60;99.90;;;;;;5048835;28;20786;-86
2021/12/06 03:22:12;;;;;;;11.60;9.10;;;3.70;99.90;;;;;;5070701;28;20514;-84
2021/12/06 03:24:38;;;;;;;9.90;8.90;;;3.80;99.90;;;;;;5043384;28;20773;-82
2021/12/06 03:27:04;;;;;;;10.20;9.23;;;3.90;99.90;;;;;;5037776;28;20456;-86
2021/12/06 03:29:30;;;;;;;14.87;9.73;;;3.50;99.90;;;;;;5064424;28;20540;-82
2021/12/06 03:31:57;;;;;;;9.43;8.60;;;3.50;99.90;;;;;;5059565;28;20983;-85
2021/12/06 03:34:26;;;;;;;9.83;8.93;;;3.50;99.90;;;;;;5059580;28;20427;-82
2021/12/06 03:36:55;;;;;;;10.63;9.53;;;3.40;99.90;;;;;;5076105;28;20510;-85
2021/12/06 03:39:25;;;;;;;11.23;9.50;;;3.40;99.90;;;;;;5060328;28;20431;-84
2021/12/06 03:41:58;;;;;;;11.33;10.13;;;3.20;99.90;;;;;;5057436;28;20435;-84
2021/12/06 03:44:24;;;;;;;11.40;9.90;;;3.30;99.90;;;;;;5076109;28;20423;-84
2021/12/06 03:46:57;;;;;;;10.57;9.33;;;3.30;99.90;;;;;;5049441;28;20447;-84
2021/12/06 03:49:24;;;;;;;11.90;9.67;;;3.40;99.90;;;;;;5043124;28;20447;-82
2021/12/06 03:51:50;;;;;;;11.27;9.80;;;3.20;99.90;;;;;;5042127;28;20423;-84
2021/12/06 03:54:19;;;;;;;12.53;11.23;;;3.20;99.90;;;;;;5054343;28;20928;-84
2021/12/06 03:56:46;;;;;;;10.70;9.60;;;3.40;99.90;;;;;;5039506;28;20494;-82
2021/12/06 03:59:12;;;;;;;14.03;9.43;;;3.30;99.90;;;;;;5075658;28;20420;-85
2021/12/06 04:01:39;;;;;;;10.30;9.13;;;3.30;99.90;;;;;;5064567;28;20451;-84
2021/12/06 04:04:06;;;;;;;11.80;10.60;;;3.30;99.90;;;;;;5057579;28;20412;-85
2021/12/06 04:06:32;;;;;;;10.60;9.50;;;3.40;99.90;;;;;;5041736;28;20508;-81
2021/12/06 04:08:58;;;;;;;11.57;10.23;;;3.40;99.90;;;;;;5045927;28;20501;-85
2021/12/06 04:11:25;;;;;;;12.17;10.43;;;3.00;99.90;;;;;;5050789;28;20423;-83
2021/12/06 04:13:50;;;;;;;11.17;10.07;;;3.30;99.90;;;;;;5080158;28;20410;-84
2021/12/06 04:16:16;;;;;;;12.83;10.37;;;3.20;99.90;;;;;;5035709;28;20431;-82
2021/12/06 04:18:42;;;;;;;13.53;11.37;;;3.20;99.90;;;;;;5043917;28;20224;-84
2021/12/06 04:21:09;;;;;;;13.03;10.90;;;3.50;99.90;;;;;;5054877;28;20419;-81
2021/12/06 04:23:35;;;;;;;14.63;10.27;;;3.40;99.90;;;;;;5063676;28;20177;-84
2021/12/06 04:26:02;;;;;;;13.20;10.63;;;3.40;99.90;;;;;;5042351;28;20539;-84
2021/12/06 04:28:30;;;;;;;11.07;9.50;;;3.50;99.90;;;;;;5063473;28;20404;-85
2021/12/06 04:30:57;;;;;;;12.27;9.43;;;3.40;99.90;;;;;;5060458;28;20961;-86
2021/12/06 04:33:23;;;;;;;11.50;10.30;;;3.60;99.90;;;;;;5078978;28;20415;-81
2021/12/06 04:35:49;;;;;;;11.40;10.07;;;3.30;99.90;;;;;;5069398;28;20431;-83
2021/12/06 04:38:15;;;;;;;10.80;9.70;;;3.00;99.90;;;;;;5060478;28;20212;-84
2021/12/06 04:40:41;;;;;;;13.43;10.43;;;3.00;99.90;;;;;;5042805;28;20447;-84
2021/12/06 04:43:08;;;;;;;11.70;10.00;;;2.80;99.90;;;;;;5062391;28;20427;-83
2021/12/06 04:45:35;;;;;;;11.90;9.97;;;3.00;99.90;;;;;;5080040;28;20541;-84
2021/12/06 04:48:01;;;;;;;11.53;10.07;;;2.90;99.90;;;;;;5062999;28;20461;-83
2021/12/06 04:50:31;;;;;;;17.57;10.17;;;3.20;99.90;;;;;;5052428;28;20428;-85
2021/12/06 04:52:59;;;;;;;13.63;9.83;;;3.20;99.90;;;;;;5040389;28;20285;-81
2021/12/06 04:55:50;;;;;;;14.83;9.83;;;3.40;99.90;;;;;;5042827;28;20525;-85
2021/12/06 04:58:21;;;;;;;9.67;8.43;;;3.70;99.90;;;;;;5049821;28;20533;-83
2021/12/06 05:00:53;;;;;;;9.40;8.23;;;3.30;99.90;;;;;;5078799;28;20419;-86
2021/12/06 05:03:19;;;;;;;11.43;9.93;;;3.30;99.90;;;;;;5080181;28;20434;-82
2021/12/06 05:05:50;;;;;;;10.60;9.50;;;3.00;99.90;;;;;;5032195;28;20470;-83
2021/12/06 05:08:22;;;;;;;11.60;9.40;;;3.00;99.90;;;;;;5059031;28;20485;-83
2021/12/06 05:10:49;;;;;;;11.40;9.77;;;3.00;99.90;;;;;;5076933;28;20423;-82
2021/12/06 05:13:15;;;;;;;10.50;8.97;;;2.90;99.90;;;;;;5046017;28;20526;-83
2021/12/06 05:15:43;;;;;;;13.57;9.60;;;2.80;99.90;;;;;;5038141;28;20902;-84
2021/12/06 05:18:09;;;;;;;10.80;9.17;;;2.80;99.90;;;;;;5050300;28;20874;-81
2021/12/06 05:20:35;;;;;;;12.80;10.00;;;2.60;99.90;;;;;;5045149;28;20423;-85
2021/12/06 05:23:02;;;;;;;13.43;9.10;;;2.50;99.90;;;;;;5077916;28;20181;-83
2021/12/06 05:25:29;;;;;;;21.67;9.93;;;2.50;99.90;;;;;;5054696;28;20830;-86
2021/12/06 05:27:58;;;;;;;12.17;10.10;;;2.80;99.90;;;;;;5042690;28;20444;-81
2021/12/06 05:30:25;;;;;;;13.97;9.57;;;2.60;99.90;;;;;;5039192;28;20455;-84
2021/12/06 05:32:52;;;;;;;12.40;11.10;;;2.70;99.90;;;;;;5038002;28;20420;-85
2021/12/06 05:35:18;;;;;;;12.20;8.90;;;2.60;99.90;;;;;;5039535;28;20454;-85
2021/12/06 05:37:47;;;;;;;16.20;10.93;;;2.60;99.90;;;;;;5059700;28;20464;-86
2021/12/06 05:40:19;;;;;;;11.60;9.37;;;2.70;99.90;;;;;;5047991;28;20428;-82
2021/12/06 05:42:46;;;;;;;10.43;8.77;;;2.80;99.90;;;;;;5027385;28;20506;-84
2021/12/06 05:45:14;;;;;;;12.10;9.57;;;2.60;99.90;;;;;;5056960;28;21997;-84
2021/12/06 05:47:39;;;;;;;14.23;8.20;;;2.80;99.90;;;;;;5041265;28;20511;-80
2021/12/06 05:50:06;;;;;;;12.07;8.83;;;2.50;99.90;;;;;;5072490;28;20456;-86
2021/12/06 05:52:32;;;;;;;14.30;9.87;;;2.50;99.90;;;;;;5032878;28;20189;-82
2021/12/06 05:54:58;;;;;;;19.53;9.03;;;2.80;99.90;;;;;;5076017;28;20447;-82
2021/12/06 05:57:24;;;;;;;9.93;8.10;;;2.50;99.90;;;;;;5056529;28;20213;-81
2021/12/06 05:59:50;;;;;;;11.43;9.03;;;2.50;99.90;;;;;;5073478;28;20322;-84
2021/12/06 06:02:17;;;;;;;11.57;8.93;;;2.30;99.90;;;;;;5058515;28;20459;-83
2021/12/06 06:04:42;;;;;;;12.40;9.43;;;2.50;99.90;;;;;;5044924;28;20431;-83
2021/12/06 06:07:08;;;;;;;14.83;8.93;;;2.60;99.90;;;;;;5076059;28;20439;-85
2021/12/06 06:09:34;;;;;;;18.10;8.20;;;2.80;99.90;;;;;;5076290;28;20653;-85
2021/12/06 06:12:01;;;;;;;11.87;8.97;;;2.90;99.90;;;;;;5040049;28;20643;-86
2021/12/06 06:14:27;;;;;;;12.00;8.67;;;2.90;99.90;;;;;;5059070;28;20423;-85
2021/12/06 06:16:54;;;;;;;14.43;10.40;;;2.70;99.90;;;;;;5039635;28;20450;-86
2021/12/06 06:19:23;;;;;;;19.13;9.30;;;2.90;99.90;;;;;;5079404;28;20185;-85
2021/12/06 06:21:50;;;;;;;12.20;9.37;;;2.90;99.90;;;;;;5039585;28;21106;-84
2021/12/06 06:24:16;;;;;;;15.50;10.73;;;2.70;99.90;;;;;;5058087;28;20496;-84
2021/12/06 06:26:42;;;;;;;11.70;9.23;;;2.50;99.90;;;;;;5035988;28;20492;-85
2021/12/06 06:29:08;;;;;;;11.43;9.20;;;2.50;99.90;;;;;;5056605;28;20418;-86
2021/12/06 06:31:34;;;;;;;12.27;9.90;;;2.30;99.90;;;;;;5059080;28;20263;-84
2021/12/06 06:34:00;;;;;;;12.03;9.83;;;2.20;99.90;;;;;;5059004;28;20832;-85
2021/12/06 06:36:26;;;;;;;10.43;8.90;;;2.20;99.90;;;;;;5064374;28;20231;-82
2021/12/06 06:38:51;;;;;;;12.20;9.63;;;2.20;99.90;;;;;;5056090;28;20189;-84
2021/12/06 06:41:17;;;;;;;11.73;9.33;;;2.40;99.90;;;;;;5035494;28;20657;-82
2021/12/06 06:43:43;;;;;;;10.50;9.40;;;2.30;99.90;;;;;;5060115;28;20214;-83
2021/12/06 06:46:09;;;;;;;12.80;9.47;;;2.30;99.90;;;;;;5078420;28;20212;-83
2021/12/06 06:48:35;;;;;;;12.10;9.10;;;2.30;99.90;;;;;;5014412;28;20181;-81
2021/12/06 06:51:02;;;;;;;12.03;9.60;;;2.10;99.90;;;;;;5075351;28;20427;-82
2021/12/06 06:53:27;;;;;;;12.10;8.77;;;2.10;99.90;;;;;;5053621;28;20221;-84
2021/12/06 06:55:54;;;;;;;9.77;8.53;;;2.10;99.90;;;;;;5044523;28;20419;-82
2021/12/06 06:58:20;;;;;;;10.70;8.80;;;2.10;99.90;;;;;;5044316;28;20248;-84
2021/12/06 07:00:46;;;;;;;13.33;9.40;;;2.00;99.90;;;;;;5061756;28;20419;-84
2021/12/06 07:03:12;;;;;;;12.13;9.43;;;2.30;99.90;;;;;;5061939;28;20412;-83
2021/12/06 07:05:38;;;;;;;13.27;9.90;;;2.40;99.90;;;;;;5077072;28;20554;-81
2021/12/06 07:08:05;;;;;;;11.63;9.50;;;2.40;99.90;;;;;;5058128;28;20229;-84
2021/12/06 07:10:30;;;;;;;10.00;8.03;;;2.20;99.90;;;;;;5078508;28;20474;-83
2021/12/06 07:12:59;;;;;;;11.50;9.27;;;2.10;99.90;;;;;;5077760;28;20416;-85
2021/12/06 07:15:28;;;;;;;13.07;9.33;;;2.20;99.90;;;;;;5076039;28;20189;-82
2021/12/06 07:17:55;;;;;;;11.50;8.67;;;2.00;99.90;;;;;;5072446;28;20518;-81
2021/12/06 07:20:21;;;;;;;10.83;8.70;;;2.00;99.90;;;;;;5069187;28;20427;-82
2021/12/06 07:22:48;;;;;;;11.13;9.03;;;1.70;99.90;;;;;;5073912;28;20465;-85
2021/12/06 07:25:16;;;;;;;10.50;9.30;;;1.70;99.90;;;;;;5057067;28;20466;-84
2021/12/06 07:27:43;;;;;;;10.07;8.83;;;1.90;99.90;;;;;;5042634;28;20556;-82
2021/12/06 07:30:11;;;;;;;9.23;8.27;;;1.60;99.90;;;;;;5063191;28;20459;-84
2021/12/06 07:32:37;;;;;;;12.07;10.17;;;1.50;99.90;;;;;;5040410;28;20999;-83
2021/12/06 07:35:05;;;;;;;15.37;11.27;;;1.50;99.90;;;;;;5040099;28;20428;-84
2021/12/06 07:37:31;;;;;;;13.10;10.47;;;1.70;99.90;;;;;;5092306;28;20325;-85
2021/12/06 07:39:57;;;;;;;13.63;10.27;;;1.90;99.90;;;;;;5083168;28;20534;-81
2021/12/06 07:42:23;;;;;;;12.60;10.90;;;1.60;99.90;;;;;;5060590;28;20442;-83
2021/12/06 07:44:48;;;;;;;12.40;11.00;;;1.50;99.90;;;;;;5043457;28;20742;-84
2021/12/06 07:47:15;;;;;;;14.37;11.20;;;1.80;99.90;;;;;;5048226;28;20209;-85
2021/12/06 07:49:43;;;;;;;21.17;12.00;;;1.60;99.90;;;;;;5073349;28;20230;-85
2021/12/06 07:52:09;;;;;;;15.03;12.03;;;1.80;99.90;;;;;;5074879;28;20434;-83
2021/12/06 07:54:35;;;;;;;15.00;11.47;;;2.00;99.90;;;;;;5024670;28;20412;-85
2021/12/06 07:57:01;;;;;;;19.80;12.60;;;1.80;99.90;;;;;;5077946;28;20454;-85
2021/12/06 07:59:27;;;;;;;17.63;12.10;;;2.00;99.90;;;;;;5057827;28;20693;-84
2021/12/06 08:01:53;;;;;;;16.10;11.67;;;1.90;99.90;;;;;;5056150;28;20419;-84
2021/12/06 08:04:19;;;;;;;16.80;12.53;;;2.20;99.90;;;;;;5074569;28;20427;-84
2021/12/06 08:06:45;;;;;;;17.73;12.90;;;2.30;99.90;;;;;;5051179;28;20458;-83
2021/12/06 08:09:12;;;;;;;21.63;12.60;;;2.20;99.90;;;;;;5062713;28;20983;-84
2021/12/06 08:11:37;;;;;;;16.07;12.07;;;2.20;99.90;;;;;;5070490;28;20561;-84
2021/12/06 08:14:03;;;;;;;18.37;12.50;;;2.10;99.90;;;;;;5047856;28;20455;-84
2021/12/06 08:16:34;;;;;;;24.00;13.07;;;2.20;99.90;;;;;;5080374;28;20330;-83
2021/12/06 08:19:00;;;;;;;19.13;12.50;;;2.60;99.90;;;;;;5080705;28;20404;-84
2021/12/06 08:21:27;;;;;;;18.20;13.20;;;2.30;99.90;;;;;;5080369;28;20454;-85
2021/12/06 08:23:55;;;;;;;19.80;12.13;;;2.40;99.90;;;;;;5062866;28;20443;-83
2021/12/06 08:26:24;;;;;;;22.40;12.97;;;2.50;99.90;;;;;;5051103;28;20468;-83
2021/12/06 08:28:51;;;;;;;16.60;12.10;;;2.70;99.90;;;;;;5044934;28;20458;-85
2021/12/06 08:31:22;;;;;;;19.50;12.33;;;2.70;99.90;;;;;;5046617;28;21267;-84
2021/12/06 08:33:52;;;;;;;17.47;12.83;;;2.60;99.90;;;;;;5080136;28;20774;-82
2021/12/06 08:36:18;;;;;;;26.77;12.30;;;2.50;99.90;;;;;;5053123;28;20432;-80
2021/12/06 08:38:45;;;;;;;19.30;11.70;;;2.90;99.90;;;;;;5074062;28;20441;-83
2021/12/06 08:41:14;;;;;;;14.97;11.30;;;2.80;99.90;;;;;;5062891;28;20431;-83
2021/12/06 08:43:41;;;;;;;15.70;11.67;;;2.90;99.90;;;;;;5078988;28;20435;-84
2021/12/06 08:46:15;;;;;;;22.23;11.70;;;2.50;99.90;;;;;;5050889;28;20543;-83
2021/12/06 08:48:42;;;;;;;17.80;11.67;;;2.80;99.90;;;;;;5055713;28;20446;-83
2021/12/06 08:51:17;;;;;;;27.43;12.77;;;2.80;99.90;;;;;;5077514;28;20447;-81
2021/12/06 08:53:43;;;;;;;48.90;12.87;;;3.00;99.90;;;;;;5030934;28;20434;-81
2021/12/06 08:56:09;;;;;;;15.77;10.83;;;2.70;99.90;;;;;;5057758;28;20466;-83
2021/12/06 08:58:35;;;;;;;13.60;11.27;;;2.40;99.90;;;;;;5060343;28;20411;-81
2021/12/06 09:01:01;;;;;;;19.93;10.57;;;2.40;99.90;;;;;;5064061;28;20725;-83
2021/12/06 09:03:27;;;;;;;16.47;11.43;;;2.60;99.90;;;;;;5060517;28;20420;-83
2021/12/06 09:05:54;;;;;;;13.77;10.47;;;2.70;99.90;;;;;;5064058;28;20470;-84
2021/12/06 09:08:21;;;;;;;19.20;10.80;;;2.90;99.90;;;;;;5057150;28;20531;-83
2021/12/06 09:10:50;;;;;;;15.57;10.10;;;2.70;99.90;;;;;;5055912;28;20430;-84
2021/12/06 09:13:17;;;;;;;14.73;10.97;;;3.10;99.90;;;;;;5076793;28;20931;-81
2021/12/06 09:15:43;;;;;;;14.17;10.10;;;3.10;99.90;;;;;;5045652;28;20420;-83
2021/12/06 09:18:09;;;;;;;13.37;10.77;;;3.20;99.90;;;;;;5032339;28;20440;-82
2021/12/06 09:20:38;;;;;;;16.00;11.87;;;3.00;99.90;;;;;;5047306;28;20421;-83
2021/12/06 09:23:06;;;;;;;14.53;9.97;;;3.20;99.90;;;;;;5057388;28;20182;-83
2021/12/06 09:25:33;;;;;;;25.23;10.80;;;3.40;99.90;;;;;;5025422;28;20605;-82
2021/12/06 09:28:00;;;;;;;19.40;11.27;;;3.20;99.90;;;;;;5070620;28;20669;-83
2021/12/06 09:30:30;;;;;;;15.60;9.87;;;3.00;99.90;;;;;;5071541;28;20412;-83
2021/12/06 09:32:58;;;;;;;15.90;10.03;;;3.10;99.90;;;;;;5076702;28;20419;-83
2021/12/06 09:35:27;;;;;;;37.03;10.30;;;2.90;99.90;;;;;;5075951;28;20419;-85
2021/12/06 09:37:56;;;;;;;14.00;10.47;;;2.80;99.90;;;;;;5049754;28;20435;-84
2021/12/06 09:40:23;;;;;;;11.13;9.37;;;2.70;99.90;;;;;;5058882;28;20439;-81
2021/12/06 09:42:48;;;;;;;13.57;10.60;;;2.80;99.90;;;;;;5060532;28;20934;-81
2021/12/06 09:45:21;;;;;;;10.53;9.40;;;2.90;99.90;;;;;;5046886;28;20531;-84
2021/12/06 09:47:51;;;;;;;11.90;9.03;;;3.10;99.90;;;;;;5024247;28;20801;-83
2021/12/06 09:50:30;;;;;;;11.57;9.33;;;3.50;99.90;;;;;;5076654;28;20423;-82
2021/12/06 09:52:58;;;;;;;9.97;8.90;;;3.60;99.90;;;;;;5056719;28;20804;-81
2021/12/06 09:55:26;;;;;;;11.00;9.40;;;4.10;99.90;;;;;;5054405;28;20952;-81
2021/12/06 09:57:52;;;;;;;11.67;10.40;;;4.60;99.90;;;;;;5039580;28;20449;-81
2021/12/06 10:00:21;;;;;;;10.93;9.00;;;4.60;99.90;;;;;;5076935;28;20469;-81
2021/12/06 10:02:47;;;;;;;10.83;8.77;;;5.50;99.90;;;;;;5051780;28;20444;-81
2021/12/06 10:05:12;;;;;;;10.77;9.40;;;5.70;99.90;;;;;;5069406;28;20452;-84
2021/12/06 10:07:38;;;;;;;10.30;9.17;;;5.80;99.90;;;;;;5069742;28;20994;-81
2021/12/06 10:10:07;;;;;;;10.10;9.10;;;6.40;99.90;;;;;;5057647;28;20210;-84
2021/12/06 10:12:34;;;;;;;10.80;9.13;;;6.10;99.90;;;;;;5024720;28;20432;-84
2021/12/06 10:15:03;;;;;;;9.73;8.83;;;6.20;99.90;;;;;;5039678;28;20431;-84
2021/12/06 10:17:30;;;;;;;10.53;9.43;;;6.30;99.90;;;;;;5058317;28;20973;-84
2021/12/06 10:19:56;;;;;;;10.23;9.13;;;6.60;99.90;;;;;;5047402;28;20442;-84
2021/12/06 10:22:22;;;;;;;10.90;9.77;;;6.70;99.90;;;;;;5076199;28;20432;-81
2021/12/06 10:24:52;;;;;;;10.40;9.30;;;6.70;99.90;;;;;;5036358;28;20531;-83
2021/12/06 10:27:19;;;;;;;11.00;9.90;;;6.80;99.90;;;;;;5036492;28;20208;-82
2021/12/06 10:29:53;;;;;;;13.50;10.90;;;6.50;99.90;;;;;;5042850;28;20423;-84
2021/12/06 10:32:26;;;;;;;12.30;10.70;;;6.10;99.90;;;;;;5010966;28;20832;-84
2021/12/06 10:34:59;;;;;;;14.20;11.87;;;5.50;99.90;;;;;;5064098;28;20428;-84
2021/12/06 10:37:30;;;;;;;12.83;11.30;;;5.60;99.90;;;;;;5053392;28;20893;-81
2021/12/06 10:39:56;;;;;;;14.20;12.70;;;5.60;99.90;;;;;;5067972;28;20819;-83
2021/12/06 10:42:28;;;;;;;15.03;12.70;;;5.50;99.90;;;;;;5075562;28;20636;-81
2021/12/06 10:44:54;;;;;;;14.37;12.17;;;5.90;99.90;;;;;;5075524;28;20424;-83
2021/12/06 10:47:20;;;;;;;17.37;13.07;;;6.10;99.90;;;;;;5062998;28;20469;-81
2021/12/06 10:49:48;;;;;;;14.83;13.13;;;6.10;99.90;;;;;;5055656;28;20204;-84
2021/12/06 10:52:27;;;;;;;14.93;12.30;;;5.90;99.90;;;;;;5053191;28;20185;-81
2021/12/06 10:54:55;;;;;;;14.30;11.87;;;6.10;99.90;;;;;;5070041;28;20518;-83
2021/12/06 10:57:21;;;;;;;13.10;11.47;;;6.00;99.90;;;;;;5026408;28;20438;-83
2021/12/06 10:59:46;;;;;;;14.10;12.53;;;5.90;99.90;;;;;;5044962;28;20424;-84
2021/12/06 11:02:13;;;;;;;14.43;12.27;;;6.00;99.90;;;;;;5023377;28;20181;-84
2021/12/06 11:04:41;;;;;;;15.57;12.37;;;5.70;99.90;;;;;;5074076;28;20252;-83
2021/12/06 11:07:08;;;;;;;16.60;12.97;;;5.70;99.90;;;;;;5030404;28;20546;-83
2021/12/06 11:09:41;;;;;;;12.03;10.60;;;5.80;99.90;;;;;;5048450;28;20533;-84
2021/12/06 11:12:08;;;;;;;12.47;10.20;;;5.90;99.90;;;;;;5042600;28;20423;-83
2021/12/06 11:14:40;;;;;;;11.77;10.57;;;6.00;99.90;;;;;;5042021;28;20440;-82
2021/12/06 11:17:19;;;;;;;11.70;10.50;;;5.90;99.90;;;;;;5047817;28;20452;-83
2021/12/06 11:19:45;;;;;;;11.67;9.40;;;5.90;99.90;;;;;;5068753;28;20809;-83
2021/12/06 11:22:20;;;;;;;13.43;10.10;;;6.00;99.90;;;;;;5051848;28;20461;-83
2021/12/06 11:24:51;;;;;;;11.83;10.73;;;6.10;99.90;;;;;;5074187;28;20470;-83
2021/12/06 11:27:29;;;;;;;12.47;11.17;;;6.40;99.90;;;;;;5073026;28;21000;-81
2021/12/06 11:30:03;;;;;;;10.47;9.47;;;6.70;99.90;;;;;;5075291;28;20411;-84
2021/12/06 11:32:33;;;;;;;11.40;10.10;;;6.90;99.90;;;;;;5061677;28;20443;-84
2021/12/06 11:35:04;;;;;;;10.83;9.73;;;6.90;99.90;;;;;;5041869;28;21014;-82
2021/12/06 11:37:40;;;;;;;10.20;9.20;;;7.30;99.90;;;;;;5028974;28;20427;-84
2021/12/06 11:40:11;;;;;;;12.10;10.10;;;6.80;99.90;;;;;;5052515;28;20438;-83
2021/12/06 11:42:59;;;;;;;10.93;9.83;;;7.00;99.90;;;;;;5068259;28;20463;-81
2021/12/06 11:45:35;;;;;;;10.37;9.00;;;7.10;99.90;;;;;;5041670;28;20474;-82
2021/12/06 11:48:05;;;;;;;10.90;9.80;;;7.50;99.90;;;;;;5047280;28;20452;-81
2021/12/06 11:50:32;;;;;;;11.83;10.67;;;8.00;99.90;;;;;;5051078;28;20428;-83
2021/12/06 11:53:04;;;;;;;12.10;10.00;;;8.10;99.90;;;;;;5034079;28;20422;-83
2021/12/06 11:55:30;;;;;;;12.93;10.93;;;8.80;99.90;;;;;;5049755;28;20518;-83
2021/12/06 11:57:56;;;;;;;10.97;9.87;;;9.30;99.90;;;;;;5057876;28;20466;-82
2021/12/06 12:00:24;;;;;;;13.07;10.17;;;9.40;99.90;;;;;;5075427;28;20855;-83
2021/12/06 12:02:51;;;;;;;10.13;9.13;;;9.30;99.90;;;;;;5062584;28;20431;-81
2021/12/06 12:05:26;;;;;;;11.07;9.97;;;9.90;99.90;;;;;;5038661;28;20503;-80
2021/12/06 12:08:15;;;;;;;11.77;9.30;;;10.60;99.90;;;;;;5056532;28;20443;-83
2021/12/06 12:10:44;;;;;;;10.80;8.60;;;11.10;99.90;;;;;;5066972;28;20462;-81
2021/12/06 12:13:34;;;;;;;10.30;8.97;;;11.00;99.90;;;;;;5074628;28;20426;-83
2021/12/06 12:16:05;;;;;;;12.27;9.50;;;10.70;99.90;;;;;;5070054;28;20447;-84
2021/12/06 12:18:32;;;;;;;11.30;9.77;;;10.00;99.90;;;;;;5032019;28;20937;-82
2021/12/06 12:20:58;;;;;;;11.57;9.03;;;9.80;99.90;;;;;;5068507;28;20466;-83
2021/12/06 12:23:31;;;;;;;9.90;8.90;;;9.40;99.90;;;;;;5064588;28;20415;-81
2021/12/06 12:26:06;;;;;;;11.60;9.90;;;9.10;99.90;;;;;;5053209;28;20217;-82
2021/12/06 12:28:50;;;;;;;9.97;8.97;;;8.70;99.90;;;;;;5059277;28;20519;-80
2021/12/06 12:31:18;;;;;;;13.57;10.00;;;8.70;99.90;;;;;;5063520;28;20430;-80
2021/12/06 12:33:46;;;;;;;14.63;10.40;;;8.60;99.90;;;;;;5070753;28;20418;-80
2021/12/06 12:36:17;;;;;;;11.70;10.37;;;8.60;99.90;;;;;;5029690;28;20423;-82
2021/12/06 12:38:47;;;;;;;11.37;10.27;;;8.30;99.90;;;;;;5067137;28;20468;-82
2021/12/06 12:41:17;;;;;;;12.40;10.40;;;8.10;99.90;;;;;;5077502;28;20439;-81
2021/12/06 12:43:46;;;;;;;10.97;9.70;;;8.00;99.90;;;;;;5058864;28;20786;-82
2021/12/06 12:46:15;;;;;;;12.17;9.90;;;8.10;99.90;;;;;;5078955;28;20486;-83
2021/12/06 12:48:56;;;;;;;11.83;10.00;;;8.10;99.90;;;;;;5061510;28;20487;-82
2021/12/06 12:51:26;;;;;;;11.00;9.60;;;8.20;99.90;;;;;;5065478;28;20424;-80
2021/12/06 12:54:22;;;;;;;12.03;9.77;;;8.00;99.90;;;;;;5061427;28;20523;-82
2021/12/06 12:56:55;;;;;;;11.30;8.40;;;7.60;99.90;;;;;;5045884;28;20454;-83
2021/12/06 12:59:35;;;;;;;12.03;9.60;;;7.70;99.90;;;;;;5061568;28;20419;-83
2021/12/06 13:02:19;;;;;;;11.20;9.60;;;7.60;99.90;;;;;;5065057;28;20434;-84
2021/12/06 13:05:00;;;;;;;15.37;10.50;;;7.70;99.90;;;;;;5077718;28;20427;-82
2021/12/06 13:07:31;;;;;;;11.13;9.47;;;7.70;99.90;;;;;;5049733;28;20441;-81